sensor_id;sensor_type;location;lat;lon;timestamp;temperature;humidity
33863;DHT22;20158;51.436;-2.742;2023-01-06T00:01:58;14.40;77.20
33863;DHT22;20158;51.436;-2.742;2023-01-06T00:04:44;14.40;77.70
33863;DHT22;20158;51.436;-2.742;2023-01-06T00:07:29;14.30;77.10
33863;DHT22;20158;51.436;-2.742;2023-01-06T00:10:13;14.30;77.20
33863;DHT22;20158;51.436;-2.742;2023-01-06T00:12:58;14.30;77.30
33863;DHT22;20158;51.436;-2.742;2023-01-06T00:15:42;14.20;77.10
33863;DHT22;20158;51.436;-2.742;2023-01-06T00:18:27;14.20;77.20
33863;DHT22;20158;51.436;-2.742;2023-01-06T00:21:13;14.20;77.20
33863;DHT22;20158;51.436;-2.742;2023-01-06T00:23:59;14.10;77.10
33863;DHT22;20158;51.436;-2.742;2023-01-06T00:26:44;14.10;77.20
33863;DHT22;20158;51.436;-2.742;2023-01-06T00:29:28;14.10;77.70
33863;DHT22;20158;51.436;-2.742;2023-01-06T00:32:13;14.10;77.20
33863;DHT22;20158;51.436;-2.742;2023-01-06T00:34:58;14.10;77.20
33863;DHT22;20158;51.436;-2.742;2023-01-06T00:37:43;14.00;77.00
33863;DHT22;20158;51.436;-2.742;2023-01-06T00:40:28;14.00;77.00
33863;DHT22;20158;51.436;-2.742;2023-01-06T00:43:12;13.90;77.40
33863;DHT22;20158;51.436;-2.742;2023-01-06T00:46:00;13.90;76.90
33863;DHT22;20158;51.436;-2.742;2023-01-06T00:48:45;13.80;76.70
33863;DHT22;20158;51.436;-2.742;2023-01-06T00:51:29;13.80;76.80
33863;DHT22;20158;51.436;-2.742;2023-01-06T00:54:14;13.80;76.80
33863;DHT22;20158;51.436;-2.742;2023-01-06T00:56:59;13.70;76.70
33863;DHT22;20158;51.436;-2.742;2023-01-06T00:59:43;13.60;76.60
33863;DHT22;20158;51.436;-2.742;2023-01-06T01:02:28;13.50;76.60
33863;DHT22;20158;51.436;-2.742;2023-01-06T01:05:14;13.50;76.60
33863;DHT22;20158;51.436;-2.742;2023-01-06T01:08:00;13.40;76.50
33863;DHT22;20158;51.436;-2.742;2023-01-06T01:10:44;13.40;76.70
33863;DHT22;20158;51.436;-2.742;2023-01-06T01:13:29;13.30;76.60
33863;DHT22;20158;51.436;-2.742;2023-01-06T01:16:14;13.30;76.60
33863;DHT22;20158;51.436;-2.742;2023-01-06T01:18:58;13.30;76.70
33863;DHT22;20158;51.436;-2.742;2023-01-06T01:21:43;13.30;76.70
33863;DHT22;20158;51.436;-2.742;2023-01-06T01:24:28;13.20;76.50
33863;DHT22;20158;51.436;-2.742;2023-01-06T01:27:13;13.20;76.50
33863;DHT22;20158;51.436;-2.742;2023-01-06T01:29:58;13.20;76.60
33863;DHT22;20158;51.436;-2.742;2023-01-06T01:32:43;13.20;76.60
33863;DHT22;20158;51.436;-2.742;2023-01-06T01:35:27;13.10;76.40
33863;DHT22;20158;51.436;-2.742;2023-01-06T01:38:12;13.10;76.40
33863;DHT22;20158;51.436;-2.742;2023-01-06T01:40:56;13.10;76.50
33863;DHT22;20158;51.436;-2.742;2023-01-06T01:43:56;13.10;76.50
33863;DHT22;20158;51.436;-2.742;2023-01-06T01:46:42;13.00;76.50
33863;DHT22;20158;51.436;-2.742;2023-01-06T01:49:28;13.00;76.50
33863;DHT22;20158;51.436;-2.742;2023-01-06T01:52:17;12.90;76.40
33863;DHT22;20158;51.436;-2.742;2023-01-06T01:55:04;12.90;76.40
33863;DHT22;20158;51.436;-2.742;2023-01-06T01:57:57;12.90;76.50
33863;DHT22;20158;51.436;-2.742;2023-01-06T02:00:43;12.80;76.40
33863;DHT22;20158;51.436;-2.742;2023-01-06T02:03:27;12.80;76.40
33863;DHT22;20158;51.436;-2.742;2023-01-06T02:06:16;12.80;76.40
33863;DHT22;20158;51.436;-2.742;2023-01-06T02:12:28;12.70;76.30
33863;DHT22;20158;51.436;-2.742;2023-01-06T02:15:33;12.70;76.30
33863;DHT22;20158;51.436;-2.742;2023-01-06T02:21:50;12.60;76.30
33863;DHT22;20158;51.436;-2.742;2023-01-06T02:28:21;12.60;76.40
33863;DHT22;20158;51.436;-2.742;2023-01-06T02:34:50;12.60;76.40
33863;DHT22;20158;51.436;-2.742;2023-01-06T02:41:32;12.60;76.30
33863;DHT22;20158;51.436;-2.742;2023-01-06T02:56:23;12.60;76.30
33863;DHT22;20158;51.436;-2.742;2023-01-06T02:59:31;12.60;76.20
33863;DHT22;20158;51.436;-2.742;2023-01-06T03:02:18;12.60;76.30
33863;DHT22;20158;51.436;-2.742;2023-01-06T03:05:05;12.60;76.30
33863;DHT22;20158;51.436;-2.742;2023-01-06T03:07:52;12.60;76.30
33863;DHT22;20158;51.436;-2.742;2023-01-06T03:10:38;12.60;76.30
33863;DHT22;20158;51.436;-2.742;2023-01-06T03:13:49;12.60;76.40
33863;DHT22;20158;51.436;-2.742;2023-01-06T03:16:36;12.50;76.30
33863;DHT22;20158;51.436;-2.742;2023-01-06T03:19:21;12.50;76.30
33863;DHT22;20158;51.436;-2.742;2023-01-06T03:22:07;12.50;76.30
33863;DHT22;20158;51.436;-2.742;2023-01-06T03:24:53;12.50;76.30
33863;DHT22;20158;51.436;-2.742;2023-01-06T03:27:40;12.50;76.30
33863;DHT22;20158;51.436;-2.742;2023-01-06T03:30:36;12.40;76.20
33863;DHT22;20158;51.436;-2.742;2023-01-06T03:33:52;12.40;76.20
33863;DHT22;20158;51.436;-2.742;2023-01-06T03:49:06;12.40;76.20
33863;DHT22;20158;51.436;-2.742;2023-01-06T03:52:11;12.30;76.00
33863;DHT22;20158;51.436;-2.742;2023-01-06T03:55:12;12.30;76.00
33863;DHT22;20158;51.436;-2.742;2023-01-06T03:58:00;12.30;76.00
33863;DHT22;20158;51.436;-2.742;2023-01-06T04:00:47;12.30;76.00
33863;DHT22;20158;51.436;-2.742;2023-01-06T04:03:33;12.30;76.00
33863;DHT22;20158;51.436;-2.742;2023-01-06T04:06:18;12.30;76.10
33863;DHT22;20158;51.436;-2.742;2023-01-06T04:09:03;12.30;76.10
33863;DHT22;20158;51.436;-2.742;2023-01-06T04:11:50;12.30;76.20
33863;DHT22;20158;51.436;-2.742;2023-01-06T04:15:19;12.30;76.20
33863;DHT22;20158;51.436;-2.742;2023-01-06T04:18:05;12.20;76.00
33863;DHT22;20158;51.436;-2.742;2023-01-06T04:20:52;12.20;76.00
33863;DHT22;20158;51.436;-2.742;2023-01-06T04:23:43;12.20;76.10
33863;DHT22;20158;51.436;-2.742;2023-01-06T04:26:28;12.10;76.00
33863;DHT22;20158;51.436;-2.742;2023-01-06T04:29:14;12.10;76.00
33863;DHT22;20158;51.436;-2.742;2023-01-06T04:31:58;12.10;76.00
33863;DHT22;20158;51.436;-2.742;2023-01-06T04:34:43;12.00;75.80
33863;DHT22;20158;51.436;-2.742;2023-01-06T04:37:29;12.00;76.40
33863;DHT22;20158;51.436;-2.742;2023-01-06T04:40:14;12.00;76.40
33863;DHT22;20158;51.436;-2.742;2023-01-06T04:42:58;12.00;75.90
33863;DHT22;20158;51.436;-2.742;2023-01-06T04:45:48;12.00;75.90
33863;DHT22;20158;51.436;-2.742;2023-01-06T04:48:33;11.90;75.80
33863;DHT22;20158;51.436;-2.742;2023-01-06T04:51:17;11.90;75.80
33863;DHT22;20158;51.436;-2.742;2023-01-06T04:54:02;11.90;75.90
33863;DHT22;20158;51.436;-2.742;2023-01-06T04:56:47;11.80;75.70
33863;DHT22;20158;51.436;-2.742;2023-01-06T04:59:31;11.80;75.70
33863;DHT22;20158;51.436;-2.742;2023-01-06T05:02:16;11.80;75.80
33863;DHT22;20158;51.436;-2.742;2023-01-06T05:05:00;11.80;75.80
33863;DHT22;20158;51.436;-2.742;2023-01-06T05:07:45;11.80;75.80
33863;DHT22;20158;51.436;-2.742;2023-01-06T05:10:29;11.80;75.70
33863;DHT22;20158;51.436;-2.742;2023-01-06T05:13:14;11.80;75.70
33863;DHT22;20158;51.436;-2.742;2023-01-06T05:15:59;11.80;75.70
33863;DHT22;20158;51.436;-2.742;2023-01-06T05:18:44;11.80;75.60
33863;DHT22;20158;51.436;-2.742;2023-01-06T05:21:29;11.90;75.80
33863;DHT22;20158;51.436;-2.742;2023-01-06T05:24:13;11.90;75.70
33863;DHT22;20158;51.436;-2.742;2023-01-06T05:26:58;11.90;75.70
33863;DHT22;20158;51.436;-2.742;2023-01-06T05:29:42;11.90;75.60
33863;DHT22;20158;51.436;-2.742;2023-01-06T05:32:27;11.90;75.60
33863;DHT22;20158;51.436;-2.742;2023-01-06T05:35:12;11.90;75.60
33863;DHT22;20158;51.436;-2.742;2023-01-06T05:37:56;11.90;75.50
33863;DHT22;20158;51.436;-2.742;2023-01-06T05:40:41;12.00;75.70
33863;DHT22;20158;51.436;-2.742;2023-01-06T05:43:26;12.00;75.70
33863;DHT22;20158;51.436;-2.742;2023-01-06T05:46:11;12.00;75.60
33863;DHT22;20158;51.436;-2.742;2023-01-06T05:48:56;12.00;75.60
33863;DHT22;20158;51.436;-2.742;2023-01-06T05:51:42;12.00;75.70
33863;DHT22;20158;51.436;-2.742;2023-01-06T05:54:26;12.00;75.60
33863;DHT22;20158;51.436;-2.742;2023-01-06T05:57:11;12.00;75.60
33863;DHT22;20158;51.436;-2.742;2023-01-06T05:59:56;12.10;75.80
33863;DHT22;20158;51.436;-2.742;2023-01-06T06:02:40;12.10;75.80
33863;DHT22;20158;51.436;-2.742;2023-01-06T06:05:25;12.10;75.80
33863;DHT22;20158;51.436;-2.742;2023-01-06T06:08:11;12.10;75.80
33863;DHT22;20158;51.436;-2.742;2023-01-06T06:10:55;12.10;75.80
33863;DHT22;20158;51.436;-2.742;2023-01-06T06:13:48;12.10;75.80
33863;DHT22;20158;51.436;-2.742;2023-01-06T06:16:34;12.10;75.90
33863;DHT22;20158;51.436;-2.742;2023-01-06T06:19:18;12.10;75.90
33863;DHT22;20158;51.436;-2.742;2023-01-06T06:22:03;12.10;75.90
33863;DHT22;20158;51.436;-2.742;2023-01-06T06:24:47;12.10;76.00
33863;DHT22;20158;51.436;-2.742;2023-01-06T06:27:32;12.10;76.00
33863;DHT22;20158;51.436;-2.742;2023-01-06T06:30:16;12.10;76.00
33863;DHT22;20158;51.436;-2.742;2023-01-06T06:33:01;12.10;76.00
33863;DHT22;20158;51.436;-2.742;2023-01-06T06:35:56;12.10;76.00
33863;DHT22;20158;51.436;-2.742;2023-01-06T06:38:42;12.10;76.60
33863;DHT22;20158;51.436;-2.742;2023-01-06T06:41:26;12.10;76.00
33863;DHT22;20158;51.436;-2.742;2023-01-06T06:44:11;12.20;76.10
33863;DHT22;20158;51.436;-2.742;2023-01-06T06:46:57;12.20;76.20
33863;DHT22;20158;51.436;-2.742;2023-01-06T06:49:42;12.20;76.40
33863;DHT22;20158;51.436;-2.742;2023-01-06T06:52:26;12.30;76.50
33863;DHT22;20158;51.436;-2.742;2023-01-06T06:55:11;12.30;76.50
33863;DHT22;20158;51.436;-2.742;2023-01-06T06:57:55;12.40;76.60
33863;DHT22;20158;51.436;-2.742;2023-01-06T07:00:40;12.30;76.40
33863;DHT22;20158;51.436;-2.742;2023-01-06T07:03:25;12.40;76.70
33863;DHT22;20158;51.436;-2.742;2023-01-06T07:06:13;12.40;76.70
33863;DHT22;20158;51.436;-2.742;2023-01-06T07:08:58;12.40;76.70
33863;DHT22;20158;51.436;-2.742;2023-01-06T07:11:42;12.30;76.60
33863;DHT22;20158;51.436;-2.742;2023-01-06T07:14:27;12.30;76.70
33863;DHT22;20158;51.436;-2.742;2023-01-06T07:17:11;12.30;76.80
33863;DHT22;20158;51.436;-2.742;2023-01-06T07:19:56;12.30;76.80
33863;DHT22;20158;51.436;-2.742;2023-01-06T07:22:40;12.30;76.80
33863;DHT22;20158;51.436;-2.742;2023-01-06T07:25:25;12.30;76.80
33863;DHT22;20158;51.436;-2.742;2023-01-06T07:28:10;12.30;76.90
33863;DHT22;20158;51.436;-2.742;2023-01-06T07:30:55;12.30;76.90
33863;DHT22;20158;51.436;-2.742;2023-01-06T07:33:40;12.30;76.90
33863;DHT22;20158;51.436;-2.742;2023-01-06T07:36:24;12.30;76.90
33863;DHT22;20158;51.436;-2.742;2023-01-06T07:39:09;12.30;76.90
33863;DHT22;20158;51.436;-2.742;2023-01-06T07:41:54;12.30;76.90
33863;DHT22;20158;51.436;-2.742;2023-01-06T07:44:39;12.30;76.90
33863;DHT22;20158;51.436;-2.742;2023-01-06T07:47:24;12.40;77.10
33863;DHT22;20158;51.436;-2.742;2023-01-06T07:50:08;12.30;76.80
33863;DHT22;20158;51.436;-2.742;2023-01-06T07:52:56;12.40;77.00
33863;DHT22;20158;51.436;-2.742;2023-01-06T07:55:40;12.40;76.90
33863;DHT22;20158;51.436;-2.742;2023-01-06T07:58:25;12.40;76.90
33863;DHT22;20158;51.436;-2.742;2023-01-06T08:01:10;12.40;76.90
33863;DHT22;20158;51.436;-2.742;2023-01-06T08:03:55;12.50;77.00
33863;DHT22;20158;51.436;-2.742;2023-01-06T08:06:41;12.50;77.00
33863;DHT22;20158;51.436;-2.742;2023-01-06T08:09:25;12.50;77.00
33863;DHT22;20158;51.436;-2.742;2023-01-06T08:12:11;12.50;76.90
33863;DHT22;20158;51.436;-2.742;2023-01-06T08:14:55;12.50;77.00
33863;DHT22;20158;51.436;-2.742;2023-01-06T08:17:39;12.50;76.90
33863;DHT22;20158;51.436;-2.742;2023-01-06T08:20:25;12.50;77.00
33863;DHT22;20158;51.436;-2.742;2023-01-06T08:23:09;12.50;77.00
33863;DHT22;20158;51.436;-2.742;2023-01-06T08:26:11;12.50;76.90
33863;DHT22;20158;51.436;-2.742;2023-01-06T08:28:58;12.50;76.90
33863;DHT22;20158;51.436;-2.742;2023-01-06T08:31:43;12.40;76.80
33863;DHT22;20158;51.436;-2.742;2023-01-06T08:34:27;12.40;76.80
33863;DHT22;20158;51.436;-2.742;2023-01-06T08:37:12;12.40;76.80
33863;DHT22;20158;51.436;-2.742;2023-01-06T08:39:56;12.40;76.80
33863;DHT22;20158;51.436;-2.742;2023-01-06T08:42:41;12.40;76.90
33863;DHT22;20158;51.436;-2.742;2023-01-06T08:45:26;12.40;76.90
33863;DHT22;20158;51.436;-2.742;2023-01-06T08:48:11;12.40;76.90
33863;DHT22;20158;51.436;-2.742;2023-01-06T08:51:01;12.40;76.80
33863;DHT22;20158;51.436;-2.742;2023-01-06T08:53:46;12.40;76.80
33863;DHT22;20158;51.436;-2.742;2023-01-06T08:56:31;12.40;76.70
33863;DHT22;20158;51.436;-2.742;2023-01-06T08:59:16;12.40;76.70
33863;DHT22;20158;51.436;-2.742;2023-01-06T09:02:01;12.50;76.80
33863;DHT22;20158;51.436;-2.742;2023-01-06T09:04:47;12.50;76.70
33863;DHT22;20158;51.436;-2.742;2023-01-06T09:07:33;12.50;76.60
33863;DHT22;20158;51.436;-2.742;2023-01-06T09:10:18;12.60;76.60
33863;DHT22;20158;51.436;-2.742;2023-01-06T09:13:03;12.60;76.60
33863;DHT22;20158;51.436;-2.742;2023-01-06T09:15:47;12.60;76.50
33863;DHT22;20158;51.436;-2.742;2023-01-06T09:18:32;12.70;76.60
33863;DHT22;20158;51.436;-2.742;2023-01-06T09:21:19;12.70;76.50
33863;DHT22;20158;51.436;-2.742;2023-01-06T09:24:04;12.80;76.50
33863;DHT22;20158;51.436;-2.742;2023-01-06T09:26:48;12.80;76.50
33863;DHT22;20158;51.436;-2.742;2023-01-06T09:29:33;12.80;76.40
33863;DHT22;20158;51.436;-2.742;2023-01-06T09:32:18;12.90;76.60
33863;DHT22;20158;51.436;-2.742;2023-01-06T09:35:03;12.90;76.60
33863;DHT22;20158;51.436;-2.742;2023-01-06T09:37:47;12.90;76.50
33863;DHT22;20158;51.436;-2.742;2023-01-06T09:43:49;13.00;76.80
33863;DHT22;20158;51.436;-2.742;2023-01-06T09:46:37;13.10;76.90
33863;DHT22;20158;51.436;-2.742;2023-01-06T09:49:38;13.20;77.00
33863;DHT22;20158;51.436;-2.742;2023-01-06T09:52:28;13.40;77.20
33863;DHT22;20158;51.436;-2.742;2023-01-06T09:55:51;13.50;77.10
33863;DHT22;20158;51.436;-2.742;2023-01-06T09:58:50;13.50;76.80
33863;DHT22;20158;51.436;-2.742;2023-01-06T10:01:44;13.60;76.70
33863;DHT22;20158;51.436;-2.742;2023-01-06T10:04:29;13.70;76.70
33863;DHT22;20158;51.436;-2.742;2023-01-06T10:07:24;13.80;76.70
33863;DHT22;20158;51.436;-2.742;2023-01-06T10:13:30;13.90;76.50
33863;DHT22;20158;51.436;-2.742;2023-01-06T10:22:59;14.10;76.20
33863;DHT22;20158;51.436;-2.742;2023-01-06T10:26:04;14.20;76.20
33863;DHT22;20158;51.436;-2.742;2023-01-06T10:28:53;14.30;76.20
33863;DHT22;20158;51.436;-2.742;2023-01-06T10:31:43;14.30;76.00
33863;DHT22;20158;51.436;-2.742;2023-01-06T10:34:28;14.30;75.90
33863;DHT22;20158;51.436;-2.742;2023-01-06T10:37:20;14.40;75.90
33863;DHT22;20158;51.436;-2.742;2023-01-06T10:40:27;14.40;75.80
33863;DHT22;20158;51.436;-2.742;2023-01-06T10:43:13;14.40;75.60
33863;DHT22;20158;51.436;-2.742;2023-01-06T10:45:59;14.40;75.50
33863;DHT22;20158;51.436;-2.742;2023-01-06T10:48:44;14.50;75.60
33863;DHT22;20158;51.436;-2.742;2023-01-06T10:51:38;14.60;75.60
33863;DHT22;20158;51.436;-2.742;2023-01-06T10:54:27;14.70;76.00
33863;DHT22;20158;51.436;-2.742;2023-01-06T10:57:19;14.80;75.40
33863;DHT22;20158;51.436;-2.742;2023-01-06T11:03:05;15.00;75.20
33863;DHT22;20158;51.436;-2.742;2023-01-06T11:06:28;15.10;75.10
33863;DHT22;20158;51.436;-2.742;2023-01-06T11:12:17;15.30;74.90
33863;DHT22;20158;51.436;-2.742;2023-01-06T11:15:07;15.40;74.90
33863;DHT22;20158;51.436;-2.742;2023-01-06T11:17:52;15.40;74.70
33863;DHT22;20158;51.436;-2.742;2023-01-06T11:20:36;15.40;75.10
33863;DHT22;20158;51.436;-2.742;2023-01-06T11:23:21;15.50;74.50
33863;DHT22;20158;51.436;-2.742;2023-01-06T11:26:17;15.60;74.40
33863;DHT22;20158;51.436;-2.742;2023-01-06T11:29:36;15.70;74.30
33863;DHT22;20158;51.436;-2.742;2023-01-06T11:32:23;15.80;74.20
33863;DHT22;20158;51.436;-2.742;2023-01-06T11:35:21;15.80;74.10
33863;DHT22;20158;51.436;-2.742;2023-01-06T11:38:15;15.80;73.80
33863;DHT22;20158;51.436;-2.742;2023-01-06T11:41:08;15.70;73.60
33863;DHT22;20158;51.436;-2.742;2023-01-06T11:43:56;15.70;73.60
33863;DHT22;20158;51.436;-2.742;2023-01-06T11:46:48;15.60;73.50
33863;DHT22;20158;51.436;-2.742;2023-01-06T11:49:38;15.60;73.40
33863;DHT22;20158;51.436;-2.742;2023-01-06T11:52:26;15.50;73.30
33863;DHT22;20158;51.436;-2.742;2023-01-06T11:55:20;15.50;73.20
33863;DHT22;20158;51.436;-2.742;2023-01-06T11:58:19;15.50;73.20
33863;DHT22;20158;51.436;-2.742;2023-01-06T12:06:55;15.40;72.90
33863;DHT22;20158;51.436;-2.742;2023-01-06T12:09:43;15.40;72.80
33863;DHT22;20158;51.436;-2.742;2023-01-06T12:12:29;15.40;72.80
33863;DHT22;20158;51.436;-2.742;2023-01-06T12:15:15;15.40;72.70
33863;DHT22;20158;51.436;-2.742;2023-01-06T12:18:04;15.40;72.70
33863;DHT22;20158;51.436;-2.742;2023-01-06T12:20:51;15.40;72.60
33863;DHT22;20158;51.436;-2.742;2023-01-06T12:23:38;15.50;72.60
33863;DHT22;20158;51.436;-2.742;2023-01-06T12:26:23;15.50;72.50
33863;DHT22;20158;51.436;-2.742;2023-01-06T12:29:15;15.50;72.30
33863;DHT22;20158;51.436;-2.742;2023-01-06T12:32:15;15.50;72.20
33863;DHT22;20158;51.436;-2.742;2023-01-06T12:35:04;15.50;72.10
33863;DHT22;20158;51.436;-2.742;2023-01-06T12:37:55;15.50;72.10
33863;DHT22;20158;51.436;-2.742;2023-01-06T12:41:02;15.50;72.00
33863;DHT22;20158;51.436;-2.742;2023-01-06T12:47:15;15.50;71.70
33863;DHT22;20158;51.436;-2.742;2023-01-06T12:50:26;15.50;71.80
33863;DHT22;20158;51.436;-2.742;2023-01-06T12:53:36;15.40;71.60
33863;DHT22;20158;51.436;-2.742;2023-01-06T12:56:42;15.40;71.60
33863;DHT22;20158;51.436;-2.742;2023-01-06T13:02:58;15.20;71.60
33863;DHT22;20158;51.436;-2.742;2023-01-06T13:15:42;14.80;72.00
33863;DHT22;20158;51.436;-2.742;2023-01-06T13:18:44;14.80;71.70
33863;DHT22;20158;51.436;-2.742;2023-01-06T13:21:30;14.70;71.50
33863;DHT22;20158;51.436;-2.742;2023-01-06T13:24:44;14.70;71.50
33863;DHT22;20158;51.436;-2.742;2023-01-06T13:40:18;14.70;71.40
33863;DHT22;20158;51.436;-2.742;2023-01-06T13:43:21;14.70;71.90
33863;DHT22;20158;51.436;-2.742;2023-01-06T13:46:10;14.70;71.50
33863;DHT22;20158;51.436;-2.742;2023-01-06T13:49:01;14.60;71.40
33863;DHT22;20158;51.436;-2.742;2023-01-06T13:51:46;14.60;71.40
33863;DHT22;20158;51.436;-2.742;2023-01-06T13:55:00;14.50;71.30
33863;DHT22;20158;51.436;-2.742;2023-01-06T13:57:45;14.50;71.30
33863;DHT22;20158;51.436;-2.742;2023-01-06T14:00:30;14.40;71.20
33863;DHT22;20158;51.436;-2.742;2023-01-06T14:03:22;14.40;71.30
33863;DHT22;20158;51.436;-2.742;2023-01-06T14:06:12;14.30;71.20
33863;DHT22;20158;51.436;-2.742;2023-01-06T14:09:17;14.30;71.30
33863;DHT22;20158;51.436;-2.742;2023-01-06T14:12:28;14.20;71.20
33863;DHT22;20158;51.436;-2.742;2023-01-06T14:15:25;14.20;71.20
33863;DHT22;20158;51.436;-2.742;2023-01-06T14:18:35;14.20;71.20
33863;DHT22;20158;51.436;-2.742;2023-01-06T14:21:28;14.20;71.30
33863;DHT22;20158;51.436;-2.742;2023-01-06T14:24:30;14.20;71.20
33863;DHT22;20158;51.436;-2.742;2023-01-06T14:27:15;14.20;71.30
33863;DHT22;20158;51.436;-2.742;2023-01-06T14:30:25;14.20;71.40
33863;DHT22;20158;51.436;-2.742;2023-01-06T14:33:35;14.20;71.40
33863;DHT22;20158;51.436;-2.742;2023-01-06T14:36:21;14.20;71.40
33863;DHT22;20158;51.436;-2.742;2023-01-06T14:39:09;14.20;71.40
33863;DHT22;20158;51.436;-2.742;2023-01-06T14:42:20;14.10;71.30
33863;DHT22;20158;51.436;-2.742;2023-01-06T14:45:15;14.10;71.40
33863;DHT22;20158;51.436;-2.742;2023-01-06T14:48:12;14.00;71.40
33863;DHT22;20158;51.436;-2.742;2023-01-06T14:50:58;13.90;71.20
33863;DHT22;20158;51.436;-2.742;2023-01-06T14:53:47;13.80;71.10
33863;DHT22;20158;51.436;-2.742;2023-01-06T14:56:33;13.70;71.10
33863;DHT22;20158;51.436;-2.742;2023-01-06T14:59:17;13.70;71.20
33863;DHT22;20158;51.436;-2.742;2023-01-06T15:02:14;13.70;71.30
33863;DHT22;20158;51.436;-2.742;2023-01-06T15:05:00;13.50;71.00
33863;DHT22;20158;51.436;-2.742;2023-01-06T15:11:31;13.50;71.30
33863;DHT22;20158;51.436;-2.742;2023-01-06T15:14:45;13.40;71.20
33863;DHT22;20158;51.436;-2.742;2023-01-06T15:17:31;13.40;71.40
33863;DHT22;20158;51.436;-2.742;2023-01-06T15:20:15;13.40;71.40
33863;DHT22;20158;51.436;-2.742;2023-01-06T15:23:01;13.40;71.40
33863;DHT22;20158;51.436;-2.742;2023-01-06T15:25:50;13.40;71.50
33863;DHT22;20158;51.436;-2.742;2023-01-06T15:28:35;13.30;71.30
33863;DHT22;20158;51.436;-2.742;2023-01-06T15:31:21;13.30;71.30
33863;DHT22;20158;51.436;-2.742;2023-01-06T15:34:15;13.30;71.40
33863;DHT22;20158;51.436;-2.742;2023-01-06T15:37:01;13.40;71.60
33863;DHT22;20158;51.436;-2.742;2023-01-06T15:39:48;13.40;71.60
33863;DHT22;20158;51.436;-2.742;2023-01-06T15:42:33;13.30;71.40
33863;DHT22;20158;51.436;-2.742;2023-01-06T15:45:27;13.30;72.00
33863;DHT22;20158;51.436;-2.742;2023-01-06T15:48:25;13.30;71.60
33863;DHT22;20158;51.436;-2.742;2023-01-06T15:51:15;13.30;71.60
33863;DHT22;20158;51.436;-2.742;2023-01-06T15:54:01;13.30;71.70
33863;DHT22;20158;51.436;-2.742;2023-01-06T15:56:46;13.30;71.70
33863;DHT22;20158;51.436;-2.742;2023-01-06T15:59:31;13.20;71.60
33863;DHT22;20158;51.436;-2.742;2023-01-06T16:02:17;13.20;71.70
33863;DHT22;20158;51.436;-2.742;2023-01-06T16:05:03;13.20;71.70
33863;DHT22;20158;51.436;-2.742;2023-01-06T16:07:47;13.20;71.80
33863;DHT22;20158;51.436;-2.742;2023-01-06T16:10:36;13.20;71.90
33863;DHT22;20158;51.436;-2.742;2023-01-06T16:13:27;13.20;71.90
33863;DHT22;20158;51.436;-2.742;2023-01-06T16:19:14;13.20;72.00
33863;DHT22;20158;51.436;-2.742;2023-01-06T16:22:04;13.20;72.10
33863;DHT22;20158;51.436;-2.742;2023-01-06T16:24:51;13.20;72.60
33863;DHT22;20158;51.436;-2.742;2023-01-06T16:27:36;13.20;72.10
33863;DHT22;20158;51.436;-2.742;2023-01-06T16:30:24;13.30;72.30
33863;DHT22;20158;51.436;-2.742;2023-01-06T16:33:35;13.30;72.30
33863;DHT22;20158;51.436;-2.742;2023-01-06T16:36:23;13.30;72.40
33863;DHT22;20158;51.436;-2.742;2023-01-06T16:39:08;13.30;72.40
33863;DHT22;20158;51.436;-2.742;2023-01-06T16:44:44;13.30;72.60
33863;DHT22;20158;51.436;-2.742;2023-01-06T16:47:28;13.30;72.60
33863;DHT22;20158;51.436;-2.742;2023-01-06T16:50:27;13.30;72.70
33863;DHT22;20158;51.436;-2.742;2023-01-06T16:53:19;13.30;72.80
33863;DHT22;20158;51.436;-2.742;2023-01-06T16:56:12;13.30;72.80
33863;DHT22;20158;51.436;-2.742;2023-01-06T16:58:58;13.30;72.90
33863;DHT22;20158;51.436;-2.742;2023-01-06T17:01:44;13.30;72.90
33863;DHT22;20158;51.436;-2.742;2023-01-06T17:04:29;13.30;73.00
33863;DHT22;20158;51.436;-2.742;2023-01-06T17:07:14;13.30;73.10
33863;DHT22;20158;51.436;-2.742;2023-01-06T17:09:58;13.30;73.30
33863;DHT22;20158;51.436;-2.742;2023-01-06T17:12:50;13.30;73.50
33863;DHT22;20158;51.436;-2.742;2023-01-06T17:16:00;13.30;73.50
33863;DHT22;20158;51.436;-2.742;2023-01-06T17:18:49;13.40;73.70
33863;DHT22;20158;51.436;-2.742;2023-01-06T17:21:36;13.40;73.70
33863;DHT22;20158;51.436;-2.742;2023-01-06T17:24:23;13.40;73.80
33863;DHT22;20158;51.436;-2.742;2023-01-06T17:29:59;13.40;73.90
33863;DHT22;20158;51.436;-2.742;2023-01-06T17:32:45;13.40;74.10
33863;DHT22;20158;51.436;-2.742;2023-01-06T17:35:30;13.50;74.50
33863;DHT22;20158;51.436;-2.742;2023-01-06T17:38:21;13.50;74.50
33863;DHT22;20158;51.436;-2.742;2023-01-06T17:41:08;13.60;74.70
33863;DHT22;20158;51.436;-2.742;2023-01-06T17:43:53;13.60;74.60
33863;DHT22;20158;51.436;-2.742;2023-01-06T17:46:38;13.70;74.90
33863;DHT22;20158;51.436;-2.742;2023-01-06T17:52:37;13.60;74.80
33863;DHT22;20158;51.436;-2.742;2023-01-06T17:58:30;13.60;74.90
33863;DHT22;20158;51.436;-2.742;2023-01-06T18:01:26;13.60;74.90
33863;DHT22;20158;51.436;-2.742;2023-01-06T18:04:13;13.60;75.00
33863;DHT22;20158;51.436;-2.742;2023-01-06T18:06:58;13.60;75.00
33863;DHT22;20158;51.436;-2.742;2023-01-06T18:09:44;13.60;75.30
33863;DHT22;20158;51.436;-2.742;2023-01-06T18:12:29;13.60;75.10
33863;DHT22;20158;51.436;-2.742;2023-01-06T18:15:28;13.60;75.40
33863;DHT22;20158;51.436;-2.742;2023-01-06T18:18:34;13.70;76.40
33863;DHT22;20158;51.436;-2.742;2023-01-06T18:21:26;13.80;76.70
33863;DHT22;20158;51.436;-2.742;2023-01-06T18:24:28;13.90;76.90
33863;DHT22;20158;51.436;-2.742;2023-01-06T18:27:23;13.90;77.10
33863;DHT22;20158;51.436;-2.742;2023-01-06T18:30:15;14.00;77.40
33863;DHT22;20158;51.436;-2.742;2023-01-06T18:32:59;14.20;77.90
33863;DHT22;20158;51.436;-2.742;2023-01-06T18:35:44;14.30;78.00
33863;DHT22;20158;51.436;-2.742;2023-01-06T18:38:29;14.50;78.20
33863;DHT22;20158;51.436;-2.742;2023-01-06T18:41:14;14.70;78.40
33863;DHT22;20158;51.436;-2.742;2023-01-06T18:43:59;14.80;78.90
33863;DHT22;20158;51.436;-2.742;2023-01-06T18:46:44;14.90;78.40
33863;DHT22;20158;51.436;-2.742;2023-01-06T18:49:31;15.00;78.50
33863;DHT22;20158;51.436;-2.742;2023-01-06T18:52:45;15.20;78.70
33863;DHT22;20158;51.436;-2.742;2023-01-06T18:55:47;15.30;78.90
33863;DHT22;20158;51.436;-2.742;2023-01-06T18:58:48;15.40;78.70
33863;DHT22;20158;51.436;-2.742;2023-01-06T19:01:49;15.40;78.40
33863;DHT22;20158;51.436;-2.742;2023-01-06T19:04:35;15.40;78.20
33863;DHT22;20158;51.436;-2.742;2023-01-06T19:07:28;15.30;78.10
33863;DHT22;20158;51.436;-2.742;2023-01-06T19:10:26;15.30;78.10
33863;DHT22;20158;51.436;-2.742;2023-01-06T19:13:22;15.20;78.00
33863;DHT22;20158;51.436;-2.742;2023-01-06T19:19:26;15.10;77.90
33863;DHT22;20158;51.436;-2.742;2023-01-06T19:28:05;15.00;77.80
33863;DHT22;20158;51.436;-2.742;2023-01-06T19:31:00;15.00;77.90
33863;DHT22;20158;51.436;-2.742;2023-01-06T19:34:04;14.90;77.70
33863;DHT22;20158;51.436;-2.742;2023-01-06T19:36:54;15.00;77.90